createdAt,value
2024-02-13T00:02:06.546Z,6.57
2024-02-13T00:04:35.187Z,6.53
2024-02-13T00:07:04.020Z,6.51
2024-02-13T00:09:32.677Z,6.37
2024-02-13T00:12:02.517Z,6.47
2024-02-13T00:14:31.021Z,6.52
2024-02-13T00:17:00.401Z,6.49
2024-02-13T00:19:29.010Z,6.25
2024-02-13T00:21:59.419Z,6.51
2024-02-13T00:24:27.408Z,6.36
2024-02-13T00:26:55.745Z,6.33
2024-02-13T00:29:24.299Z,6.26
2024-02-13T00:31:53.343Z,6.31
2024-02-13T00:49:39.257Z,6.37
2024-02-13T00:52:08.496Z,6.36
2024-02-13T00:54:35.933Z,6.30
2024-02-13T00:57:04.562Z,6.33
2024-02-13T00:59:32.248Z,6.06
2024-02-13T01:02:00.260Z,6.20
2024-02-13T01:04:28.684Z,6.11
2024-02-13T01:06:56.966Z,6.19
2024-02-13T01:09:24.925Z,6.22
2024-02-13T01:11:52.892Z,6.07
2024-02-13T01:14:20.625Z,6.05
2024-02-13T01:16:48.528Z,6.06
2024-02-13T01:19:19.037Z,6.02
2024-02-13T01:21:47.348Z,6.01
2024-02-13T01:24:14.770Z,5.98
2024-02-13T01:26:44.146Z,5.99
2024-02-13T01:29:13.252Z,5.88
2024-02-13T01:31:40.989Z,5.94
2024-02-13T01:34:11.686Z,5.95
2024-02-13T01:36:39.660Z,5.91
2024-02-13T01:39:07.240Z,5.91
2024-02-13T01:41:35.149Z,5.95
2024-02-13T01:44:05.304Z,5.88
2024-02-13T01:46:35.024Z,5.79
2024-02-13T01:49:02.799Z,5.88
2024-02-13T01:51:32.858Z,5.80
2024-02-13T01:54:01.972Z,5.85
2024-02-13T01:56:31.452Z,5.82
2024-02-13T01:58:58.977Z,5.80
2024-02-13T02:01:29.141Z,5.87
2024-02-13T02:03:56.880Z,5.77
2024-02-13T02:06:25.186Z,5.86
2024-02-13T02:08:52.796Z,5.84
2024-02-13T02:11:20.833Z,5.76
2024-02-13T02:13:48.754Z,5.74
2024-02-13T02:16:17.496Z,5.64
2024-02-13T02:18:44.867Z,5.69
2024-02-13T02:21:13.074Z,5.69
2024-02-13T02:23:40.630Z,5.57
2024-02-13T04:10:09.259Z,4.83
2024-02-13T04:12:37.269Z,4.63
2024-02-13T04:15:05.449Z,4.70
2024-02-13T04:17:33.775Z,4.66
2024-02-13T04:20:02.819Z,4.63
2024-02-13T04:22:31.053Z,4.64
2024-02-13T04:24:58.669Z,4.56
2024-02-13T04:27:26.314Z,4.58
2024-02-13T04:29:54.668Z,4.55
2024-02-13T04:32:22.638Z,4.59
2024-02-13T04:34:50.235Z,4.60
2024-02-13T04:37:18.051Z,4.60
2024-02-13T04:39:45.424Z,4.61
2024-02-13T04:42:13.506Z,4.53
2024-02-13T04:44:41.390Z,4.59
2024-02-13T04:47:09.091Z,4.47
2024-02-13T04:49:36.838Z,4.59
2024-02-13T04:52:05.514Z,4.52
2024-02-13T04:54:34.003Z,4.53
2024-02-13T04:57:01.791Z,4.54
2024-02-13T04:59:38.980Z,4.46
2024-02-13T05:02:07.352Z,4.46
2024-02-13T05:04:37.555Z,4.42
2024-02-13T05:07:24.916Z,4.40
2024-02-13T05:09:54.381Z,4.36
2024-02-13T05:12:22.561Z,4.39
2024-02-13T05:14:50.336Z,4.33
2024-02-13T05:17:18.024Z,4.35
2024-02-13T05:19:45.536Z,4.33
2024-02-13T05:22:14.818Z,4.27
2024-02-13T05:24:42.947Z,4.32
2024-02-13T05:27:12.202Z,4.31
2024-02-13T05:29:45.478Z,4.33
2024-02-13T05:32:16.063Z,4.27
2024-02-13T05:34:43.642Z,4.33
2024-02-13T05:37:11.344Z,4.37
2024-02-13T05:39:38.888Z,4.32
2024-02-13T05:42:08.048Z,4.35
2024-02-13T05:44:35.531Z,4.37
2024-02-13T05:47:05.424Z,4.32
2024-02-13T05:49:34.226Z,4.33
2024-02-13T05:52:02.282Z,4.35
2024-02-13T05:54:30.066Z,4.38
2024-02-13T05:56:57.994Z,4.33
2024-02-13T05:59:28.000Z,4.45
2024-02-13T06:01:55.856Z,4.36
2024-02-13T06:04:25.189Z,4.42
2024-02-13T06:06:54.031Z,4.48
2024-02-13T06:09:23.738Z,4.50
2024-02-13T06:11:54.600Z,4.31
2024-02-13T06:14:36.941Z,4.38
2024-02-13T06:17:17.195Z,4.39
2024-02-13T06:20:14.324Z,4.57
2024-02-13T06:22:58.030Z,4.39
2024-02-13T06:25:41.291Z,4.50
2024-02-13T06:28:35.285Z,4.58
2024-02-13T06:31:15.287Z,4.20
2024-02-13T06:34:07.029Z,4.55
2024-02-13T06:36:47.655Z,4.61
2024-02-13T06:39:33.195Z,4.58
2024-02-13T06:42:14.434Z,4.58
2024-02-13T06:45:12.266Z,4.35
2024-02-13T06:47:55.742Z,4.35
2024-02-13T06:50:48.381Z,4.66
2024-02-13T06:53:35.564Z,4.61
2024-02-13T06:56:15.975Z,4.43
2024-02-13T06:58:44.067Z,4.68
2024-02-13T07:01:14.444Z,4.65
2024-02-13T07:03:43.213Z,4.71
2024-02-13T07:06:13.797Z,4.78
2024-02-13T07:08:41.536Z,4.76
2024-02-13T07:11:09.412Z,4.77
2024-02-13T07:13:36.792Z,4.82
2024-02-13T07:16:08.723Z,4.78
2024-02-13T07:18:37.710Z,4.76
2024-02-13T07:21:17.891Z,4.87
2024-02-13T07:23:50.231Z,4.54
2024-02-13T07:26:25.944Z,4.90
2024-02-13T07:28:57.447Z,4.88
2024-02-13T07:31:27.421Z,4.95
2024-02-13T07:33:55.668Z,4.97
2024-02-13T07:36:23.557Z,4.97
2024-02-13T07:38:51.111Z,4.99
2024-02-13T07:41:18.839Z,4.98
2024-02-13T07:43:46.456Z,5.06
2024-02-13T07:46:15.815Z,5.08
2024-02-13T07:48:44.585Z,5.11
2024-02-13T07:51:13.122Z,5.06
2024-02-13T07:53:42.106Z,5.12
2024-02-13T07:56:12.201Z,5.20
2024-02-13T07:58:40.794Z,5.22
2024-02-13T08:01:11.616Z,5.28
2024-02-13T08:03:39.745Z,5.18
2024-02-13T08:06:07.754Z,4.96
2024-02-13T08:08:35.575Z,5.14
2024-02-13T08:11:03.395Z,5.30
2024-02-13T08:13:30.772Z,5.27
2024-02-13T08:15:58.645Z,5.37
2024-02-13T08:18:26.322Z,5.44
2024-02-13T08:20:55.532Z,5.44
2024-02-13T08:23:23.204Z,5.50
2024-02-13T08:25:51.119Z,5.54
2024-02-13T08:28:19.170Z,5.46
2024-02-13T08:30:49.765Z,5.55
2024-02-13T08:33:18.669Z,5.58
2024-02-13T08:35:47.942Z,5.54
2024-02-13T08:38:15.543Z,5.64
2024-02-13T08:40:43.763Z,5.60
2024-02-13T08:43:12.458Z,5.68
2024-02-13T08:45:40.592Z,5.80
2024-02-13T08:48:08.671Z,5.81
2024-02-13T08:50:36.980Z,5.82
2024-02-13T08:53:04.612Z,5.92
2024-02-13T08:55:32.394Z,5.72
2024-02-13T08:58:00.076Z,5.88
2024-02-13T09:00:30.298Z,5.84
2024-02-13T09:03:00.423Z,5.88
2024-02-13T09:05:29.104Z,5.95
2024-02-13T09:07:56.606Z,5.94
2024-02-13T09:10:24.483Z,6.00
2024-02-13T09:12:52.604Z,5.98
2024-02-13T09:15:21.042Z,6.04
2024-02-13T09:17:49.802Z,6.08
2024-02-13T09:20:23.180Z,5.94
2024-02-13T09:25:50.358Z,6.01
2024-02-13T09:28:18.179Z,6.02
2024-02-13T09:30:48.829Z,5.91
2024-02-13T09:33:16.363Z,5.97
2024-02-13T09:35:45.527Z,5.97
2024-02-13T09:38:13.484Z,5.98
2024-02-13T09:40:41.602Z,6.02
2024-02-13T09:43:09.977Z,6.07
2024-02-13T09:45:41.506Z,6.03
2024-02-13T09:48:31.183Z,6.13
2024-02-13T09:51:04.521Z,6.17
2024-02-13T09:53:32.472Z,6.17
2024-02-13T09:56:00.774Z,6.17
2024-02-13T09:58:30.371Z,6.20
2024-02-13T10:01:01.168Z,6.18
2024-02-13T10:03:29.885Z,6.19
2024-02-13T10:05:59.382Z,6.19
2024-02-13T10:08:32.390Z,6.20
2024-02-13T10:11:14.476Z,6.18
2024-02-13T10:13:47.082Z,6.16
2024-02-13T10:16:20.895Z,6.08
2024-02-13T10:18:59.535Z,6.20
2024-02-13T10:21:28.729Z,6.24
2024-02-13T10:24:19.171Z,6.31
2024-02-13T10:26:47.388Z,6.38
2024-02-13T10:29:15.017Z,6.40
2024-02-13T10:31:45.680Z,6.40
2024-02-13T10:34:14.797Z,6.41
2024-02-13T10:36:47.260Z,6.38
2024-02-13T10:39:48.547Z,6.34
2024-02-13T10:42:22.032Z,6.34
2024-02-13T10:44:51.797Z,6.34
2024-02-13T10:47:20.749Z,6.35
2024-02-13T10:49:54.605Z,6.34
2024-02-13T10:52:22.938Z,6.37
2024-02-13T10:54:51.073Z,6.37
2024-02-13T10:57:19.318Z,6.40
2024-02-13T10:59:48.603Z,6.38
2024-02-13T11:02:21.547Z,6.35
2024-02-13T11:04:50.324Z,6.34
2024-02-13T11:07:19.161Z,6.31
2024-02-13T11:09:46.662Z,6.17
2024-02-13T11:12:14.976Z,6.45
2024-02-13T11:14:43.042Z,6.52
2024-02-13T11:17:14.102Z,6.60
2024-02-13T11:19:46.048Z,6.62
2024-02-13T11:22:23.730Z,6.47
2024-02-13T11:24:54.968Z,6.09
2024-02-13T11:27:29.702Z,5.80
2024-02-13T11:30:01.004Z,5.83
2024-02-13T11:32:34.970Z,5.72
2024-02-13T11:35:12.169Z,5.58
2024-02-13T11:37:43.259Z,5.74
2024-02-13T11:40:16.726Z,5.75
2024-02-13T11:42:46.071Z,5.79
2024-02-13T11:45:30.049Z,5.86
2024-02-13T11:47:59.089Z,5.83
2024-02-13T11:50:26.920Z,5.95
2024-02-13T11:52:55.365Z,6.04
2024-02-13T11:55:22.844Z,6.04
2024-02-13T11:57:52.025Z,6.18
2024-02-13T12:00:20.907Z,6.28
2024-02-13T12:02:56.044Z,6.31
2024-02-13T12:05:26.629Z,6.35
2024-02-13T12:07:55.267Z,6.42
2024-02-13T12:10:22.951Z,6.40
2024-02-13T12:12:51.321Z,6.51
2024-02-13T12:15:24.293Z,6.53
2024-02-13T12:17:56.886Z,6.67
2024-02-13T12:20:31.184Z,6.71
2024-02-13T12:23:07.504Z,6.85
2024-02-13T12:25:37.028Z,6.99
2024-02-13T12:28:07.160Z,7.00
2024-02-13T12:30:38.001Z,7.07
2024-02-13T12:33:09.513Z,6.93
2024-02-13T12:35:39.254Z,7.02
2024-02-13T12:38:13.649Z,6.99
2024-02-13T12:40:45.959Z,6.84
2024-02-13T12:43:20.038Z,6.88
2024-02-13T12:45:48.131Z,6.74
2024-02-13T12:48:16.191Z,6.71
2024-02-13T12:50:43.875Z,6.44
2024-02-13T12:53:13.485Z,6.22
2024-02-13T12:55:40.993Z,5.90
2024-02-13T12:58:09.177Z,5.80
2024-02-13T13:00:36.789Z,5.84
2024-02-13T13:03:06.018Z,5.77
2024-02-13T13:05:34.791Z,5.76
2024-02-13T13:08:06.089Z,5.72
2024-02-13T13:10:34.252Z,5.84
2024-02-13T13:13:03.662Z,5.81
2024-02-13T13:15:31.405Z,5.82
2024-02-13T13:18:03.029Z,5.80
2024-02-13T13:20:31.322Z,5.81
2024-02-13T13:23:02.109Z,5.84
2024-02-13T13:25:33.184Z,5.89
2024-02-13T13:28:06.695Z,5.88
2024-02-13T13:30:34.873Z,5.86
2024-02-13T13:33:06.760Z,5.88
2024-02-13T13:35:36.782Z,5.88
2024-02-13T13:38:05.367Z,5.92
2024-02-13T13:40:38.743Z,5.81
2024-02-13T13:43:09.849Z,5.87
2024-02-13T13:45:37.344Z,5.80
2024-02-13T13:48:15.405Z,5.74
2024-02-13T13:50:44.633Z,5.77
2024-02-13T13:53:12.543Z,5.76
2024-02-13T13:55:40.129Z,5.76
2024-02-13T13:58:09.222Z,5.79
2024-02-13T14:00:37.194Z,5.73
2024-02-13T14:03:09.180Z,5.75
2024-02-13T14:05:38.576Z,5.76
2024-02-13T14:08:07.703Z,5.74
2024-02-13T14:10:35.155Z,5.68
2024-02-13T14:13:06.726Z,5.65
2024-02-13T14:15:35.885Z,5.74
2024-02-13T14:18:05.944Z,5.78
2024-02-13T14:20:39.025Z,5.83
2024-02-13T14:23:08.533Z,5.89
2024-02-13T14:25:37.899Z,5.95
2024-02-13T14:28:11.789Z,5.97
2024-02-13T14:30:42.283Z,6.01
2024-02-13T14:33:12.062Z,5.99
2024-02-13T14:35:41.123Z,5.98
2024-02-13T14:38:09.405Z,5.95
2024-02-13T14:40:41.024Z,5.85
2024-02-13T14:43:09.991Z,5.86
2024-02-13T14:45:38.545Z,5.74
2024-02-13T14:48:14.818Z,5.86
2024-02-13T14:50:44.453Z,5.80
2024-02-13T14:53:16.034Z,5.83
2024-02-13T14:55:43.771Z,5.84
2024-02-13T14:58:18.829Z,5.79
2024-02-13T15:00:56.643Z,5.75
2024-02-13T15:03:25.430Z,5.76
2024-02-13T15:05:54.546Z,5.54
2024-02-13T15:08:23.444Z,5.63
2024-02-13T15:10:50.953Z,5.54
2024-02-13T15:13:20.402Z,5.62
2024-02-13T15:15:52.764Z,5.59
2024-02-13T15:18:23.892Z,5.55
2024-02-13T15:20:51.978Z,5.52
2024-02-13T15:23:23.018Z,5.50
2024-02-13T15:25:50.629Z,5.49
2024-02-13T15:28:19.629Z,5.39
2024-02-13T15:30:48.184Z,5.35
2024-02-13T15:33:16.229Z,5.39
2024-02-13T15:35:53.542Z,5.31
2024-02-13T15:38:40.366Z,5.37
2024-02-13T15:41:27.605Z,5.28
2024-02-13T15:44:14.314Z,5.31
2024-02-13T15:47:01.097Z,5.35
2024-02-13T15:49:30.885Z,5.27
2024-02-13T15:51:59.729Z,5.09
2024-02-13T15:54:30.653Z,5.24
2024-02-13T15:56:58.227Z,5.18
2024-02-13T15:59:27.495Z,5.15
2024-02-13T16:01:55.704Z,5.14
2024-02-13T16:04:23.569Z,5.17
2024-02-13T16:06:55.770Z,5.15
2024-02-13T16:09:25.153Z,5.19
2024-02-13T16:11:52.771Z,5.21
2024-02-13T16:14:20.820Z,5.05
2024-02-13T16:16:48.830Z,5.21
2024-02-13T16:19:18.500Z,5.20
2024-02-13T16:21:46.076Z,5.20
2024-02-13T16:24:13.904Z,5.18
2024-02-13T16:26:41.710Z,5.15
2024-02-13T16:29:09.491Z,5.09
2024-02-13T16:31:36.975Z,5.02
2024-02-13T16:34:05.088Z,5.17
2024-02-13T16:36:32.808Z,5.16
2024-02-13T16:39:01.000Z,5.15
2024-02-13T16:41:28.776Z,5.09
2024-02-13T16:43:56.630Z,5.08
2024-02-13T16:46:25.789Z,5.10
2024-02-13T16:48:55.260Z,5.09
2024-02-13T16:51:23.304Z,5.06
2024-02-13T16:53:51.437Z,5.00
2024-02-13T16:56:21.080Z,5.01
2024-02-13T16:58:51.361Z,5.01
2024-02-13T17:01:18.997Z,4.72
2024-02-13T17:03:48.257Z,4.98
2024-02-13T17:06:16.408Z,4.94
2024-02-13T17:08:44.488Z,4.93
2024-02-13T17:11:12.423Z,4.94
2024-02-13T17:13:40.325Z,4.81
2024-02-13T17:16:09.646Z,4.89
2024-02-13T17:18:37.568Z,4.93
2024-02-13T17:21:06.341Z,4.81
2024-02-13T17:23:35.955Z,4.93
2024-02-13T17:26:05.573Z,4.88
2024-02-13T17:28:34.463Z,4.82
2024-02-13T17:31:01.929Z,4.86
2024-02-13T17:33:29.785Z,4.84
2024-02-13T17:35:57.445Z,4.87
2024-02-13T17:38:25.692Z,4.85
2024-02-13T17:40:56.502Z,4.87
2024-02-13T17:43:24.320Z,4.87
2024-02-13T17:45:51.646Z,4.92
2024-02-13T17:48:19.683Z,4.87
2024-02-13T17:50:48.066Z,4.87
2024-02-13T17:53:15.868Z,4.80
2024-02-13T17:55:44.425Z,4.62
2024-02-13T17:58:14.820Z,4.85
2024-02-13T18:00:45.272Z,4.84
2024-02-13T18:03:13.622Z,4.88
2024-02-13T18:05:42.952Z,4.75
2024-02-13T18:08:11.088Z,4.80
2024-02-13T18:10:38.487Z,4.87
2024-02-13T18:13:11.988Z,4.84
2024-02-13T18:15:41.033Z,4.85
2024-02-13T18:18:09.982Z,4.84
2024-02-13T18:20:40.832Z,4.76
2024-02-13T18:23:09.113Z,4.77
2024-02-13T18:25:37.020Z,4.55
2024-02-13T18:28:05.416Z,4.59
2024-02-13T18:30:32.897Z,4.77
2024-02-13T18:33:01.236Z,4.79
2024-02-13T18:35:29.347Z,4.80
2024-02-13T18:37:57.238Z,4.79
2024-02-13T18:40:24.592Z,4.78
2024-02-13T18:42:55.107Z,4.77
2024-02-13T18:45:22.611Z,4.77
2024-02-13T18:47:50.990Z,4.68
2024-02-13T18:50:27.122Z,4.74
2024-02-13T18:52:59.642Z,4.72
2024-02-13T18:55:27.304Z,4.68
2024-02-13T18:57:55.481Z,4.71
2024-02-13T19:00:23.265Z,4.74
2024-02-13T19:02:51.279Z,4.80
2024-02-13T19:05:20.372Z,4.78
2024-02-13T19:07:48.712Z,4.75
2024-02-13T19:10:16.453Z,4.81
2024-02-13T19:12:44.125Z,4.79
2024-02-13T19:15:13.327Z,4.79
2024-02-13T19:17:44.927Z,4.79
2024-02-13T19:20:13.938Z,4.72
2024-02-13T19:22:41.775Z,4.86
2024-02-13T19:25:09.543Z,4.90
2024-02-13T19:27:38.647Z,4.88
2024-02-13T19:30:09.252Z,4.88
2024-02-13T19:32:37.079Z,4.78
2024-02-13T19:35:06.381Z,4.81
2024-02-13T19:37:38.870Z,4.84
2024-02-13T19:40:08.855Z,4.83
2024-02-13T19:42:36.724Z,4.76
2024-02-13T19:45:06.015Z,4.73
2024-02-13T19:47:34.808Z,4.78
2024-02-13T19:50:02.507Z,4.79
2024-02-13T19:52:31.059Z,4.80
2024-02-13T19:54:58.669Z,4.73
2024-02-13T19:57:26.420Z,4.75
2024-02-13T19:59:54.085Z,4.78
2024-02-13T20:02:22.823Z,4.72
2024-02-13T20:04:50.437Z,4.69
2024-02-13T20:07:18.349Z,4.57
2024-02-13T20:09:45.763Z,4.68
2024-02-13T20:12:13.713Z,4.63
2024-02-13T20:14:41.362Z,4.64
2024-02-13T20:17:09.466Z,4.59
2024-02-13T20:19:37.110Z,4.65
2024-02-13T20:22:05.272Z,4.64
2024-02-13T20:24:34.113Z,4.63
2024-02-13T20:27:03.892Z,4.59
2024-02-13T20:29:32.234Z,4.53
2024-02-13T20:32:00.068Z,4.62
2024-02-13T20:34:30.359Z,4.48
2024-02-13T20:37:04.925Z,4.68
2024-02-13T20:39:35.030Z,4.64
2024-02-13T20:42:05.945Z,4.50
2024-02-13T20:44:33.600Z,4.63
2024-02-13T20:47:01.830Z,4.59
2024-02-13T20:49:29.912Z,4.52
2024-02-13T20:51:58.063Z,4.62
2024-02-13T20:54:26.237Z,4.61
2024-02-13T20:56:55.982Z,4.62
2024-02-13T20:59:23.560Z,4.52
2024-02-13T21:01:52.883Z,4.49
2024-02-13T21:04:20.565Z,4.56
2024-02-13T21:06:48.728Z,4.48
2024-02-13T21:09:18.089Z,4.42
2024-02-13T21:11:46.624Z,4.39
2024-02-13T21:14:14.325Z,4.51
2024-02-13T21:16:42.746Z,4.53
2024-02-13T21:19:42.622Z,4.33
2024-02-13T21:22:43.763Z,4.32
2024-02-13T21:25:13.623Z,4.28
2024-02-13T21:27:51.763Z,4.29
2024-02-13T21:30:24.731Z,4.44
2024-02-13T21:32:55.180Z,4.07
2024-02-13T21:35:26.537Z,4.50
2024-02-13T21:37:54.280Z,4.41
2024-02-13T21:40:21.857Z,4.47
2024-02-13T21:42:50.444Z,4.48
2024-02-13T21:45:18.017Z,4.51
2024-02-13T21:47:46.671Z,4.46
2024-02-13T21:50:15.072Z,4.49
2024-02-13T21:52:43.109Z,4.52
2024-02-13T21:55:13.752Z,4.07
2024-02-13T21:57:44.884Z,4.50
2024-02-13T22:00:17.159Z,4.53
2024-02-13T22:02:46.868Z,4.51
2024-02-13T22:05:15.804Z,4.40
2024-02-13T22:07:43.709Z,4.52
2024-02-13T22:10:14.903Z,4.54
2024-02-13T22:12:45.101Z,4.54
2024-02-13T22:15:19.579Z,4.50
2024-02-13T22:17:48.195Z,4.48
2024-02-13T22:20:17.123Z,4.50
2024-02-13T22:22:45.387Z,4.58
2024-02-13T22:25:13.227Z,4.62
2024-02-13T22:27:41.037Z,4.54
2024-02-13T22:30:08.726Z,4.39
2024-02-13T22:32:38.118Z,4.64
2024-02-13T22:35:06.406Z,4.65
2024-02-13T22:37:34.317Z,4.55
2024-02-13T22:40:01.806Z,4.53
2024-02-13T22:42:29.628Z,4.59
2024-02-13T22:44:57.528Z,4.54
2024-02-13T22:47:25.639Z,4.56
2024-02-13T22:49:53.782Z,4.54
2024-02-13T22:52:21.726Z,4.24
2024-02-13T22:54:49.236Z,4.44
2024-02-13T22:57:17.014Z,4.51
2024-02-13T22:59:44.679Z,4.36
2024-02-13T23:02:12.688Z,4.45
2024-02-13T23:04:41.378Z,4.43
2024-02-13T23:07:09.463Z,4.41
2024-02-13T23:09:37.542Z,4.38
2024-02-13T23:12:06.155Z,4.26
2024-02-13T23:14:37.971Z,4.23
2024-02-13T23:17:07.244Z,4.31
2024-02-13T23:19:37.308Z,4.36
2024-02-13T23:22:05.580Z,4.31
2024-02-13T23:24:33.649Z,4.35
2024-02-13T23:27:01.848Z,4.37
2024-02-13T23:29:30.057Z,4.40
2024-02-13T23:31:59.688Z,4.34
2024-02-13T23:34:27.862Z,4.24
2024-02-13T23:36:55.650Z,4.28
2024-02-13T23:39:23.447Z,4.28
2024-02-13T23:41:51.430Z,4.22
2024-02-13T23:44:19.124Z,4.22
2024-02-13T23:46:46.982Z,4.23
2024-02-13T23:49:15.403Z,4.21
2024-02-13T23:51:43.489Z,4.22
2024-02-13T23:54:11.132Z,4.15
2024-02-13T23:56:40.028Z,4.22
2024-02-13T23:59:07.746Z,4.16
